sensor_id;sensor_type;location;lat;lon;timestamp;temperature;humidity
8914;DHT22;4492;48.736;9.092;2023-06-14T00:01:19;11.50;85.90
8914;DHT22;4492;48.736;9.092;2023-06-14T00:03:47;11.40;85.60
8914;DHT22;4492;48.736;9.092;2023-06-14T00:06:13;11.30;85.40
8914;DHT22;4492;48.736;9.092;2023-06-14T00:08:39;11.30;85.50
8914;DHT22;4492;48.736;9.092;2023-06-14T00:11:06;11.30;85.40
8914;DHT22;4492;48.736;9.092;2023-06-14T00:13:31;11.30;85.50
8914;DHT22;4492;48.736;9.092;2023-06-14T00:15:57;11.20;85.60
8914;DHT22;4492;48.736;9.092;2023-06-14T00:18:23;11.20;86.00
8914;DHT22;4492;48.736;9.092;2023-06-14T00:20:54;11.20;86.20
8914;DHT22;4492;48.736;9.092;2023-06-14T00:23:20;11.20;85.50
8914;DHT22;4492;48.736;9.092;2023-06-14T00:25:46;11.20;85.60
8914;DHT22;4492;48.736;9.092;2023-06-14T00:28:12;11.20;85.50
8914;DHT22;4492;48.736;9.092;2023-06-14T00:30:37;11.20;85.80
8914;DHT22;4492;48.736;9.092;2023-06-14T00:33:03;11.30;85.50
8914;DHT22;4492;48.736;9.092;2023-06-14T00:35:28;11.30;85.30
8914;DHT22;4492;48.736;9.092;2023-06-14T00:37:54;11.30;85.40
8914;DHT22;4492;48.736;9.092;2023-06-14T00:40:20;11.30;85.50
8914;DHT22;4492;48.736;9.092;2023-06-14T00:42:47;11.20;85.50
8914;DHT22;4492;48.736;9.092;2023-06-14T00:45:12;11.20;85.90
8914;DHT22;4492;48.736;9.092;2023-06-14T00:47:38;11.20;86.00
8914;DHT22;4492;48.736;9.092;2023-06-14T00:50:07;11.20;86.10
8914;DHT22;4492;48.736;9.092;2023-06-14T00:52:33;11.20;86.30
8914;DHT22;4492;48.736;9.092;2023-06-14T00:55:00;11.10;86.60
8914;DHT22;4492;48.736;9.092;2023-06-14T00:57:27;11.10;87.30
8914;DHT22;4492;48.736;9.092;2023-06-14T00:59:52;11.00;88.10
8914;DHT22;4492;48.736;9.092;2023-06-14T01:02:18;11.00;91.20
8914;DHT22;4492;48.736;9.092;2023-06-14T01:04:47;11.00;91.40
8914;DHT22;4492;48.736;9.092;2023-06-14T01:07:31;10.90;91.50
8914;DHT22;4492;48.736;9.092;2023-06-14T01:15:13;10.80;91.70
8914;DHT22;4492;48.736;9.092;2023-06-14T01:17:39;10.70;91.80
8914;DHT22;4492;48.736;9.092;2023-06-14T01:20:12;10.70;92.00
8914;DHT22;4492;48.736;9.092;2023-06-14T01:22:51;10.60;92.70
8914;DHT22;4492;48.736;9.092;2023-06-14T01:25:17;10.50;92.70
8914;DHT22;4492;48.736;9.092;2023-06-14T01:27:52;10.40;93.70
8914;DHT22;4492;48.736;9.092;2023-06-14T01:30:20;10.40;94.30
8914;DHT22;4492;48.736;9.092;2023-06-14T01:32:47;10.40;94.60
8914;DHT22;4492;48.736;9.092;2023-06-14T01:35:13;10.40;94.80
8914;DHT22;4492;48.736;9.092;2023-06-14T01:37:40;10.30;94.70
8914;DHT22;4492;48.736;9.092;2023-06-14T01:40:07;10.30;94.90
8914;DHT22;4492;48.736;9.092;2023-06-14T01:42:36;10.20;94.70
8914;DHT22;4492;48.736;9.092;2023-06-14T01:45:04;10.20;95.10
8914;DHT22;4492;48.736;9.092;2023-06-14T01:47:31;10.10;95.10
8914;DHT22;4492;48.736;9.092;2023-06-14T01:49:58;10.10;95.10
8914;DHT22;4492;48.736;9.092;2023-06-14T01:52:23;10.00;95.70
8914;DHT22;4492;48.736;9.092;2023-06-14T01:54:50;10.00;95.70
8914;DHT22;4492;48.736;9.092;2023-06-14T01:57:15;10.00;95.90
8914;DHT22;4492;48.736;9.092;2023-06-14T01:59:41;9.90;96.50
8914;DHT22;4492;48.736;9.092;2023-06-14T02:02:06;9.90;97.20
8914;DHT22;4492;48.736;9.092;2023-06-14T02:04:32;9.90;97.60
8914;DHT22;4492;48.736;9.092;2023-06-14T02:06:57;9.90;97.60
8914;DHT22;4492;48.736;9.092;2023-06-14T02:09:23;9.90;97.80
8914;DHT22;4492;48.736;9.092;2023-06-14T02:11:49;9.80;97.60
8914;DHT22;4492;48.736;9.092;2023-06-14T02:14:14;9.70;97.80
8914;DHT22;4492;48.736;9.092;2023-06-14T02:16:40;9.70;98.00
8914;DHT22;4492;48.736;9.092;2023-06-14T02:19:05;9.60;98.10
8914;DHT22;4492;48.736;9.092;2023-06-14T02:21:31;9.60;98.40
8914;DHT22;4492;48.736;9.092;2023-06-14T02:23:56;9.50;98.60
8914;DHT22;4492;48.736;9.092;2023-06-14T02:26:23;9.50;98.80
8914;DHT22;4492;48.736;9.092;2023-06-14T02:28:49;9.50;98.90
8914;DHT22;4492;48.736;9.092;2023-06-14T02:31:14;9.40;98.90
8914;DHT22;4492;48.736;9.092;2023-06-14T02:33:41;9.40;99.10
8914;DHT22;4492;48.736;9.092;2023-06-14T02:36:07;9.40;99.30
8914;DHT22;4492;48.736;9.092;2023-06-14T02:38:32;9.40;99.50
8914;DHT22;4492;48.736;9.092;2023-06-14T02:40:58;9.40;99.70
8914;DHT22;4492;48.736;9.092;2023-06-14T02:43:25;9.40;99.90
8914;DHT22;4492;48.736;9.092;2023-06-14T02:45:51;9.40;99.90
8914;DHT22;4492;48.736;9.092;2023-06-14T02:48:17;9.40;99.90
8914;DHT22;4492;48.736;9.092;2023-06-14T02:50:42;9.40;99.90
8914;DHT22;4492;48.736;9.092;2023-06-14T02:53:08;9.40;99.90
8914;DHT22;4492;48.736;9.092;2023-06-14T02:55:33;9.30;99.90
8914;DHT22;4492;48.736;9.092;2023-06-14T02:58:04;9.30;99.90
8914;DHT22;4492;48.736;9.092;2023-06-14T03:00:29;9.20;99.90
8914;DHT22;4492;48.736;9.092;2023-06-14T03:02:56;9.20;99.90
8914;DHT22;4492;48.736;9.092;2023-06-14T03:05:21;9.10;99.90
8914;DHT22;4492;48.736;9.092;2023-06-14T03:07:47;9.10;99.90
8914;DHT22;4492;48.736;9.092;2023-06-14T03:10:13;9.10;99.90
8914;DHT22;4492;48.736;9.092;2023-06-14T03:12:39;9.10;99.90
8914;DHT22;4492;48.736;9.092;2023-06-14T03:15:05;9.10;99.90
8914;DHT22;4492;48.736;9.092;2023-06-14T03:17:30;9.10;99.90
8914;DHT22;4492;48.736;9.092;2023-06-14T03:19:59;9.10;99.90
8914;DHT22;4492;48.736;9.092;2023-06-14T03:22:25;9.00;99.90
8914;DHT22;4492;48.736;9.092;2023-06-14T03:24:51;9.00;99.90
8914;DHT22;4492;48.736;9.092;2023-06-14T03:27:17;8.90;99.90
8914;DHT22;4492;48.736;9.092;2023-06-14T03:29:44;8.90;99.90
8914;DHT22;4492;48.736;9.092;2023-06-14T03:32:09;8.90;99.90
8914;DHT22;4492;48.736;9.092;2023-06-14T03:34:35;8.90;99.90
8914;DHT22;4492;48.736;9.092;2023-06-14T03:37:01;8.90;99.90
8914;DHT22;4492;48.736;9.092;2023-06-14T03:39:26;8.90;99.90
8914;DHT22;4492;48.736;9.092;2023-06-14T03:41:52;8.90;99.90
8914;DHT22;4492;48.736;9.092;2023-06-14T03:44:18;9.00;99.90
8914;DHT22;4492;48.736;9.092;2023-06-14T03:46:44;9.10;99.90
8914;DHT22;4492;48.736;9.092;2023-06-14T03:49:10;9.20;99.90
8914;DHT22;4492;48.736;9.092;2023-06-14T03:51:36;9.30;99.90
8914;DHT22;4492;48.736;9.092;2023-06-14T03:54:02;9.30;99.90
8914;DHT22;4492;48.736;9.092;2023-06-14T03:56:27;9.40;99.90
8914;DHT22;4492;48.736;9.092;2023-06-14T03:58:53;9.40;99.90
8914;DHT22;4492;48.736;9.092;2023-06-14T04:01:19;9.40;99.90
8914;DHT22;4492;48.736;9.092;2023-06-14T04:03:44;9.40;99.90
8914;DHT22;4492;48.736;9.092;2023-06-14T04:06:10;9.50;99.90
8914;DHT22;4492;48.736;9.092;2023-06-14T04:08:35;9.50;99.90
8914;DHT22;4492;48.736;9.092;2023-06-14T04:11:01;9.50;99.90
8914;DHT22;4492;48.736;9.092;2023-06-14T04:13:27;9.60;99.90
8914;DHT22;4492;48.736;9.092;2023-06-14T04:15:53;9.60;99.90
8914;DHT22;4492;48.736;9.092;2023-06-14T04:18:18;9.70;99.90
8914;DHT22;4492;48.736;9.092;2023-06-14T04:20:45;9.70;99.90
8914;DHT22;4492;48.736;9.092;2023-06-14T04:23:12;9.70;99.90
8914;DHT22;4492;48.736;9.092;2023-06-14T04:25:38;9.70;99.90
8914;DHT22;4492;48.736;9.092;2023-06-14T04:28:03;9.80;99.90
8914;DHT22;4492;48.736;9.092;2023-06-14T04:30:29;9.90;99.90
8914;DHT22;4492;48.736;9.092;2023-06-14T04:32:56;10.00;99.90
8914;DHT22;4492;48.736;9.092;2023-06-14T04:35:22;10.10;99.90
8914;DHT22;4492;48.736;9.092;2023-06-14T04:37:49;10.10;99.90
8914;DHT22;4492;48.736;9.092;2023-06-14T04:40:15;10.30;99.90
8914;DHT22;4492;48.736;9.092;2023-06-14T04:42:40;10.40;99.90
8914;DHT22;4492;48.736;9.092;2023-06-14T04:45:10;10.50;99.90
8914;DHT22;4492;48.736;9.092;2023-06-14T04:47:36;10.60;99.90
8914;DHT22;4492;48.736;9.092;2023-06-14T04:50:03;10.70;99.90
8914;DHT22;4492;48.736;9.092;2023-06-14T04:52:28;10.80;99.90
8914;DHT22;4492;48.736;9.092;2023-06-14T04:54:55;11.00;99.90
8914;DHT22;4492;48.736;9.092;2023-06-14T04:57:21;11.10;99.90
8914;DHT22;4492;48.736;9.092;2023-06-14T04:59:47;11.30;99.90
8914;DHT22;4492;48.736;9.092;2023-06-14T05:02:13;11.40;99.90
8914;DHT22;4492;48.736;9.092;2023-06-14T05:04:39;11.60;99.90
8914;DHT22;4492;48.736;9.092;2023-06-14T05:07:07;11.80;99.60
8914;DHT22;4492;48.736;9.092;2023-06-14T05:09:33;11.90;99.10
8914;DHT22;4492;48.736;9.092;2023-06-14T05:11:59;12.10;98.70
8914;DHT22;4492;48.736;9.092;2023-06-14T05:14:25;12.30;97.90
8914;DHT22;4492;48.736;9.092;2023-06-14T05:16:52;12.60;96.40
8914;DHT22;4492;48.736;9.092;2023-06-14T05:19:17;12.80;95.60
8914;DHT22;4492;48.736;9.092;2023-06-14T05:21:43;13.10;95.90
8914;DHT22;4492;48.736;9.092;2023-06-14T05:24:09;13.20;95.70
8914;DHT22;4492;48.736;9.092;2023-06-14T05:26:35;13.40;95.80
8914;DHT22;4492;48.736;9.092;2023-06-14T05:29:00;13.40;95.10
8914;DHT22;4492;48.736;9.092;2023-06-14T05:31:27;13.50;95.00
8914;DHT22;4492;48.736;9.092;2023-06-14T05:33:53;13.60;94.20
8914;DHT22;4492;48.736;9.092;2023-06-14T05:36:19;13.90;94.00
8914;DHT22;4492;48.736;9.092;2023-06-14T05:38:46;13.90;93.60
8914;DHT22;4492;48.736;9.092;2023-06-14T05:41:12;14.10;92.30
8914;DHT22;4492;48.736;9.092;2023-06-14T05:43:37;14.20;92.10
8914;DHT22;4492;48.736;9.092;2023-06-14T05:46:03;14.40;91.20
8914;DHT22;4492;48.736;9.092;2023-06-14T05:48:30;14.60;90.70
8914;DHT22;4492;48.736;9.092;2023-06-14T05:50:55;14.70;90.80
8914;DHT22;4492;48.736;9.092;2023-06-14T05:53:21;14.90;90.20
8914;DHT22;4492;48.736;9.092;2023-06-14T05:55:47;15.00;90.10
8914;DHT22;4492;48.736;9.092;2023-06-14T05:58:12;15.20;90.10
8914;DHT22;4492;48.736;9.092;2023-06-14T06:00:39;15.30;90.00
8914;DHT22;4492;48.736;9.092;2023-06-14T06:03:04;15.40;90.30
8914;DHT22;4492;48.736;9.092;2023-06-14T06:05:30;15.50;89.70
8914;DHT22;4492;48.736;9.092;2023-06-14T06:07:55;15.70;88.50
8914;DHT22;4492;48.736;9.092;2023-06-14T06:10:21;15.80;87.30
8914;DHT22;4492;48.736;9.092;2023-06-14T06:12:47;15.80;85.50
8914;DHT22;4492;48.736;9.092;2023-06-14T06:15:13;15.90;86.20
8914;DHT22;4492;48.736;9.092;2023-06-14T06:17:39;16.00;85.70
8914;DHT22;4492;48.736;9.092;2023-06-14T06:20:06;16.10;86.00
8914;DHT22;4492;48.736;9.092;2023-06-14T06:22:34;16.30;84.00
8914;DHT22;4492;48.736;9.092;2023-06-14T06:24:59;16.40;83.80
8914;DHT22;4492;48.736;9.092;2023-06-14T06:27:25;16.40;82.60
8914;DHT22;4492;48.736;9.092;2023-06-14T06:29:51;16.50;81.90
8914;DHT22;4492;48.736;9.092;2023-06-14T06:32:17;16.70;82.20
8914;DHT22;4492;48.736;9.092;2023-06-14T06:34:42;16.90;82.30
8914;DHT22;4492;48.736;9.092;2023-06-14T06:37:08;17.00;81.10
8914;DHT22;4492;48.736;9.092;2023-06-14T06:39:34;17.10;80.10
8914;DHT22;4492;48.736;9.092;2023-06-14T06:41:59;17.20;81.90
8914;DHT22;4492;48.736;9.092;2023-06-14T06:44:24;17.30;79.90
8914;DHT22;4492;48.736;9.092;2023-06-14T06:46:50;17.50;77.20
8914;DHT22;4492;48.736;9.092;2023-06-14T06:49:16;17.60;75.50
8914;DHT22;4492;48.736;9.092;2023-06-14T06:51:42;17.80;75.20
8914;DHT22;4492;48.736;9.092;2023-06-14T06:54:08;18.00;74.50
8914;DHT22;4492;48.736;9.092;2023-06-14T06:56:35;18.20;73.10
8914;DHT22;4492;48.736;9.092;2023-06-14T06:59:01;18.30;71.60
8914;DHT22;4492;48.736;9.092;2023-06-14T07:01:26;18.30;72.70
8914;DHT22;4492;48.736;9.092;2023-06-14T07:03:54;18.40;71.00
8914;DHT22;4492;48.736;9.092;2023-06-14T07:06:20;18.60;71.00
8914;DHT22;4492;48.736;9.092;2023-06-14T07:08:45;18.60;69.60
8914;DHT22;4492;48.736;9.092;2023-06-14T07:11:13;18.60;70.30
8914;DHT22;4492;48.736;9.092;2023-06-14T07:13:39;18.60;72.30
8914;DHT22;4492;48.736;9.092;2023-06-14T07:16:05;18.70;71.80
8914;DHT22;4492;48.736;9.092;2023-06-14T07:18:31;18.80;70.30
8914;DHT22;4492;48.736;9.092;2023-06-14T07:20:56;18.80;70.50
8914;DHT22;4492;48.736;9.092;2023-06-14T07:23:22;18.90;70.90
8914;DHT22;4492;48.736;9.092;2023-06-14T07:25:48;19.00;71.60
8914;DHT22;4492;48.736;9.092;2023-06-14T07:28:14;19.10;69.10
8914;DHT22;4492;48.736;9.092;2023-06-14T07:30:39;19.10;69.10
8914;DHT22;4492;48.736;9.092;2023-06-14T07:33:05;19.20;68.40
8914;DHT22;4492;48.736;9.092;2023-06-14T07:35:31;19.10;68.90
8914;DHT22;4492;48.736;9.092;2023-06-14T07:37:56;19.20;68.60
8914;DHT22;4492;48.736;9.092;2023-06-14T07:40:22;19.20;69.20
8914;DHT22;4492;48.736;9.092;2023-06-14T07:42:48;19.20;69.70
8914;DHT22;4492;48.736;9.092;2023-06-14T07:45:15;19.30;69.60
8914;DHT22;4492;48.736;9.092;2023-06-14T07:47:41;19.30;70.70
8914;DHT22;4492;48.736;9.092;2023-06-14T07:50:07;19.40;69.20
8914;DHT22;4492;48.736;9.092;2023-06-14T07:52:33;19.40;70.60
8914;DHT22;4492;48.736;9.092;2023-06-14T07:54:58;19.30;70.40
8914;DHT22;4492;48.736;9.092;2023-06-14T07:57:24;19.30;71.50
8914;DHT22;4492;48.736;9.092;2023-06-14T07:59:50;19.30;72.40
8914;DHT22;4492;48.736;9.092;2023-06-14T08:02:15;19.40;70.90
8914;DHT22;4492;48.736;9.092;2023-06-14T08:04:41;19.40;69.10
8914;DHT22;4492;48.736;9.092;2023-06-14T08:07:07;19.50;69.40
8914;DHT22;4492;48.736;9.092;2023-06-14T08:09:33;19.60;69.60
8914;DHT22;4492;48.736;9.092;2023-06-14T08:11:58;19.70;71.50
8914;DHT22;4492;48.736;9.092;2023-06-14T08:14:24;19.90;71.10
8914;DHT22;4492;48.736;9.092;2023-06-14T08:16:49;19.90;69.90
8914;DHT22;4492;48.736;9.092;2023-06-14T08:19:15;20.00;66.90
8914;DHT22;4492;48.736;9.092;2023-06-14T08:21:42;20.00;65.30
8914;DHT22;4492;48.736;9.092;2023-06-14T08:24:10;20.00;65.60
8914;DHT22;4492;48.736;9.092;2023-06-14T08:26:38;20.00;64.40
8914;DHT22;4492;48.736;9.092;2023-06-14T08:29:03;20.20;63.80
8914;DHT22;4492;48.736;9.092;2023-06-14T08:31:29;20.20;64.10
8914;DHT22;4492;48.736;9.092;2023-06-14T08:33:54;20.20;63.50
8914;DHT22;4492;48.736;9.092;2023-06-14T08:36:20;20.20;63.70
8914;DHT22;4492;48.736;9.092;2023-06-14T08:38:45;20.30;64.60
8914;DHT22;4492;48.736;9.092;2023-06-14T08:41:12;20.50;64.30
8914;DHT22;4492;48.736;9.092;2023-06-14T08:43:39;20.60;63.10
8914;DHT22;4492;48.736;9.092;2023-06-14T08:46:06;20.50;64.20
8914;DHT22;4492;48.736;9.092;2023-06-14T08:48:34;20.70;64.10
8914;DHT22;4492;48.736;9.092;2023-06-14T08:51:00;20.80;64.80
8914;DHT22;4492;48.736;9.092;2023-06-14T08:53:32;20.90;65.80
8914;DHT22;4492;48.736;9.092;2023-06-14T08:56:02;21.00;65.00
8914;DHT22;4492;48.736;9.092;2023-06-14T08:58:33;21.10;64.10
8914;DHT22;4492;48.736;9.092;2023-06-14T09:01:02;21.10;64.80
8914;DHT22;4492;48.736;9.092;2023-06-14T09:03:28;21.10;64.00
8914;DHT22;4492;48.736;9.092;2023-06-14T09:05:56;21.10;64.10
8914;DHT22;4492;48.736;9.092;2023-06-14T09:08:25;21.10;64.40
8914;DHT22;4492;48.736;9.092;2023-06-14T09:10:50;21.10;64.10
8914;DHT22;4492;48.736;9.092;2023-06-14T09:13:17;21.10;63.70
8914;DHT22;4492;48.736;9.092;2023-06-14T09:15:43;21.10;65.90
8914;DHT22;4492;48.736;9.092;2023-06-14T09:18:09;21.30;65.40
8914;DHT22;4492;48.736;9.092;2023-06-14T09:20:34;21.40;64.70
8914;DHT22;4492;48.736;9.092;2023-06-14T09:23:00;21.30;64.90
8914;DHT22;4492;48.736;9.092;2023-06-14T09:25:26;21.40;63.30
8914;DHT22;4492;48.736;9.092;2023-06-14T09:27:52;21.40;63.30
8914;DHT22;4492;48.736;9.092;2023-06-14T09:30:20;21.40;63.40
8914;DHT22;4492;48.736;9.092;2023-06-14T09:32:46;21.30;62.20
8914;DHT22;4492;48.736;9.092;2023-06-14T09:35:12;21.20;61.70
8914;DHT22;4492;48.736;9.092;2023-06-14T09:37:38;21.30;61.80
8914;DHT22;4492;48.736;9.092;2023-06-14T09:40:05;21.40;62.20
8914;DHT22;4492;48.736;9.092;2023-06-14T09:42:31;21.50;61.70
8914;DHT22;4492;48.736;9.092;2023-06-14T09:44:57;21.50;60.80
8914;DHT22;4492;48.736;9.092;2023-06-14T09:47:23;21.60;61.30
8914;DHT22;4492;48.736;9.092;2023-06-14T09:49:51;21.70;59.00
8914;DHT22;4492;48.736;9.092;2023-06-14T09:52:18;21.70;59.10
8914;DHT22;4492;48.736;9.092;2023-06-14T09:54:45;21.70;60.40
8914;DHT22;4492;48.736;9.092;2023-06-14T09:57:22;21.90;58.50
8914;DHT22;4492;48.736;9.092;2023-06-14T09:59:48;22.00;57.80
8914;DHT22;4492;48.736;9.092;2023-06-14T10:02:29;22.10;59.10
8914;DHT22;4492;48.736;9.092;2023-06-14T10:05:07;22.00;58.50
8914;DHT22;4492;48.736;9.092;2023-06-14T10:08:00;21.90;56.70
8914;DHT22;4492;48.736;9.092;2023-06-14T10:10:28;22.00;57.80
8914;DHT22;4492;48.736;9.092;2023-06-14T10:12:54;22.20;57.40
8914;DHT22;4492;48.736;9.092;2023-06-14T10:15:27;22.40;56.10
8914;DHT22;4492;48.736;9.092;2023-06-14T10:17:59;22.70;55.30
8914;DHT22;4492;48.736;9.092;2023-06-14T10:20:37;22.90;52.10
8914;DHT22;4492;48.736;9.092;2023-06-14T10:23:10;23.20;50.50
8914;DHT22;4492;48.736;9.092;2023-06-14T10:25:37;23.50;49.30
8914;DHT22;4492;48.736;9.092;2023-06-14T10:28:24;23.70;49.70
8914;DHT22;4492;48.736;9.092;2023-06-14T10:31:10;23.80;50.90
8914;DHT22;4492;48.736;9.092;2023-06-14T10:33:41;23.80;53.40
8914;DHT22;4492;48.736;9.092;2023-06-14T10:39:08;23.40;54.10
8914;DHT22;4492;48.736;9.092;2023-06-14T10:41:37;23.20;54.60
8914;DHT22;4492;48.736;9.092;2023-06-14T10:46:38;23.40;52.80
8914;DHT22;4492;48.736;9.092;2023-06-14T10:49:04;23.40;51.80
8914;DHT22;4492;48.736;9.092;2023-06-14T10:51:44;23.60;51.80
8914;DHT22;4492;48.736;9.092;2023-06-14T10:54:20;23.80;52.20
8914;DHT22;4492;48.736;9.092;2023-06-14T10:56:47;23.80;52.10
8914;DHT22;4492;48.736;9.092;2023-06-14T10:59:13;23.70;50.70
8914;DHT22;4492;48.736;9.092;2023-06-14T11:02:03;23.40;51.50
8914;DHT22;4492;48.736;9.092;2023-06-14T11:04:49;23.00;51.50
8914;DHT22;4492;48.736;9.092;2023-06-14T11:07:46;22.90;52.40
8914;DHT22;4492;48.736;9.092;2023-06-14T11:10:41;23.20;50.90
8914;DHT22;4492;48.736;9.092;2023-06-14T11:13:07;23.50;52.70
8914;DHT22;4492;48.736;9.092;2023-06-14T11:15:37;23.70;52.90
8914;DHT22;4492;48.736;9.092;2023-06-14T11:18:06;23.60;53.10
8914;DHT22;4492;48.736;9.092;2023-06-14T11:20:33;23.20;53.30
8914;DHT22;4492;48.736;9.092;2023-06-14T11:22:59;22.90;54.00
8914;DHT22;4492;48.736;9.092;2023-06-14T11:25:25;22.70;54.10
8914;DHT22;4492;48.736;9.092;2023-06-14T11:27:52;22.50;54.70
8914;DHT22;4492;48.736;9.092;2023-06-14T11:30:17;22.20;55.10
8914;DHT22;4492;48.736;9.092;2023-06-14T11:32:46;22.20;54.80
8914;DHT22;4492;48.736;9.092;2023-06-14T11:35:12;22.20;54.90
8914;DHT22;4492;48.736;9.092;2023-06-14T11:37:38;22.10;55.20
8914;DHT22;4492;48.736;9.092;2023-06-14T11:40:04;22.10;56.10
8914;DHT22;4492;48.736;9.092;2023-06-14T11:42:35;22.30;54.50
8914;DHT22;4492;48.736;9.092;2023-06-14T11:45:00;22.50;54.30
8914;DHT22;4492;48.736;9.092;2023-06-14T11:47:32;22.80;53.30
8914;DHT22;4492;48.736;9.092;2023-06-14T11:50:02;23.10;54.10
8914;DHT22;4492;48.736;9.092;2023-06-14T11:52:28;23.30;54.40
8914;DHT22;4492;48.736;9.092;2023-06-14T11:54:54;23.60;53.70
8914;DHT22;4492;48.736;9.092;2023-06-14T11:57:20;23.80;51.60
8914;DHT22;4492;48.736;9.092;2023-06-14T11:59:46;24.10;50.60
8914;DHT22;4492;48.736;9.092;2023-06-14T12:02:15;24.10;50.40
8914;DHT22;4492;48.736;9.092;2023-06-14T12:04:42;24.00;50.10
8914;DHT22;4492;48.736;9.092;2023-06-14T12:07:11;23.60;50.80
8914;DHT22;4492;48.736;9.092;2023-06-14T12:10:26;23.60;50.60
8914;DHT22;4492;48.736;9.092;2023-06-14T12:12:26;23.80;50.70
8914;DHT22;4492;48.736;9.092;2023-06-14T12:14:53;23.70;50.20
8914;DHT22;4492;48.736;9.092;2023-06-14T12:17:20;23.90;50.00
8914;DHT22;4492;48.736;9.092;2023-06-14T12:19:46;24.20;49.20
8914;DHT22;4492;48.736;9.092;2023-06-14T12:22:13;24.20;48.20
8914;DHT22;4492;48.736;9.092;2023-06-14T12:24:39;24.20;49.20
8914;DHT22;4492;48.736;9.092;2023-06-14T12:27:05;24.40;49.50
8914;DHT22;4492;48.736;9.092;2023-06-14T12:29:31;24.60;49.60
8914;DHT22;4492;48.736;9.092;2023-06-14T12:31:57;24.60;48.50
8914;DHT22;4492;48.736;9.092;2023-06-14T12:34:23;24.40;49.30
8914;DHT22;4492;48.736;9.092;2023-06-14T12:36:53;24.20;48.90
8914;DHT22;4492;48.736;9.092;2023-06-14T12:39:20;23.80;49.10
8914;DHT22;4492;48.736;9.092;2023-06-14T12:41:46;23.50;50.00
8914;DHT22;4492;48.736;9.092;2023-06-14T12:44:12;23.30;50.90
8914;DHT22;4492;48.736;9.092;2023-06-14T12:46:38;23.30;50.00
8914;DHT22;4492;48.736;9.092;2023-06-14T12:49:09;23.20;49.40
8914;DHT22;4492;48.736;9.092;2023-06-14T12:51:35;23.20;48.70
8914;DHT22;4492;48.736;9.092;2023-06-14T12:54:00;23.40;48.10
8914;DHT22;4492;48.736;9.092;2023-06-14T12:56:26;23.70;49.30
8914;DHT22;4492;48.736;9.092;2023-06-14T12:58:52;24.00;49.80
8914;DHT22;4492;48.736;9.092;2023-06-14T13:01:18;24.20;48.70
8914;DHT22;4492;48.736;9.092;2023-06-14T13:03:43;24.20;49.10
8914;DHT22;4492;48.736;9.092;2023-06-14T13:06:09;24.10;48.10
8914;DHT22;4492;48.736;9.092;2023-06-14T13:08:34;24.00;48.50
8914;DHT22;4492;48.736;9.092;2023-06-14T13:11:00;24.20;48.70
8914;DHT22;4492;48.736;9.092;2023-06-14T13:13:25;24.30;48.60
8914;DHT22;4492;48.736;9.092;2023-06-14T13:15:51;24.50;48.60
8914;DHT22;4492;48.736;9.092;2023-06-14T13:18:17;24.50;48.90
8914;DHT22;4492;48.736;9.092;2023-06-14T13:20:42;24.50;48.50
8914;DHT22;4492;48.736;9.092;2023-06-14T13:23:09;24.50;47.80
8914;DHT22;4492;48.736;9.092;2023-06-14T13:25:36;24.10;47.90
8914;DHT22;4492;48.736;9.092;2023-06-14T13:28:03;23.90;48.70
8914;DHT22;4492;48.736;9.092;2023-06-14T13:30:29;23.60;48.00
8914;DHT22;4492;48.736;9.092;2023-06-14T13:32:55;23.70;47.60
8914;DHT22;4492;48.736;9.092;2023-06-14T13:35:22;23.80;47.80
8914;DHT22;4492;48.736;9.092;2023-06-14T13:37:48;23.80;48.60
8914;DHT22;4492;48.736;9.092;2023-06-14T13:40:13;23.80;49.20
8914;DHT22;4492;48.736;9.092;2023-06-14T13:42:39;24.00;49.20
8914;DHT22;4492;48.736;9.092;2023-06-14T13:45:05;24.50;48.80
8914;DHT22;4492;48.736;9.092;2023-06-14T13:47:31;24.90;48.50
8914;DHT22;4492;48.736;9.092;2023-06-14T13:49:57;25.10;48.10
8914;DHT22;4492;48.736;9.092;2023-06-14T13:52:23;25.00;47.70
8914;DHT22;4492;48.736;9.092;2023-06-14T13:54:49;24.80;48.00
8914;DHT22;4492;48.736;9.092;2023-06-14T13:57:15;24.50;48.50
8914;DHT22;4492;48.736;9.092;2023-06-14T13:59:41;24.20;48.50
8914;DHT22;4492;48.736;9.092;2023-06-14T14:02:07;24.20;48.60
8914;DHT22;4492;48.736;9.092;2023-06-14T14:04:33;24.60;48.90
8914;DHT22;4492;48.736;9.092;2023-06-14T14:07:01;24.90;48.40
8914;DHT22;4492;48.736;9.092;2023-06-14T14:09:26;25.20;47.50
8914;DHT22;4492;48.736;9.092;2023-06-14T14:11:52;25.30;48.30
8914;DHT22;4492;48.736;9.092;2023-06-14T14:14:17;25.80;45.80
8914;DHT22;4492;48.736;9.092;2023-06-14T14:16:43;26.00;45.50
8914;DHT22;4492;48.736;9.092;2023-06-14T14:19:08;26.30;45.20
8914;DHT22;4492;48.736;9.092;2023-06-14T14:21:34;26.30;45.00
8914;DHT22;4492;48.736;9.092;2023-06-14T14:24:00;26.10;44.70
8914;DHT22;4492;48.736;9.092;2023-06-14T14:26:26;25.90;45.30
8914;DHT22;4492;48.736;9.092;2023-06-14T14:28:52;25.60;45.30
8914;DHT22;4492;48.736;9.092;2023-06-14T14:31:18;25.40;46.10
8914;DHT22;4492;48.736;9.092;2023-06-14T14:33:43;25.50;44.90
8914;DHT22;4492;48.736;9.092;2023-06-14T14:36:09;25.50;45.60
8914;DHT22;4492;48.736;9.092;2023-06-14T14:38:35;25.60;45.80
8914;DHT22;4492;48.736;9.092;2023-06-14T14:41:00;25.70;44.90
8914;DHT22;4492;48.736;9.092;2023-06-14T14:43:26;25.70;44.50
8914;DHT22;4492;48.736;9.092;2023-06-14T14:45:52;26.00;44.00
8914;DHT22;4492;48.736;9.092;2023-06-14T14:48:17;26.20;43.80
8914;DHT22;4492;48.736;9.092;2023-06-14T14:50:43;26.40;44.80
8914;DHT22;4492;48.736;9.092;2023-06-14T14:53:08;26.40;45.00
8914;DHT22;4492;48.736;9.092;2023-06-14T14:55:34;26.10;45.40
8914;DHT22;4492;48.736;9.092;2023-06-14T14:58:02;25.90;46.30
8914;DHT22;4492;48.736;9.092;2023-06-14T15:00:28;25.70;46.20
8914;DHT22;4492;48.736;9.092;2023-06-14T15:02:53;25.60;46.90
8914;DHT22;4492;48.736;9.092;2023-06-14T15:05:19;25.60;46.70
8914;DHT22;4492;48.736;9.092;2023-06-14T15:07:45;25.60;47.00
8914;DHT22;4492;48.736;9.092;2023-06-14T15:10:11;25.40;47.30
8914;DHT22;4492;48.736;9.092;2023-06-14T15:12:37;25.10;47.60
8914;DHT22;4492;48.736;9.092;2023-06-14T15:15:03;25.30;48.00
8914;DHT22;4492;48.736;9.092;2023-06-14T15:17:29;25.70;47.90
8914;DHT22;4492;48.736;9.092;2023-06-14T15:19:54;26.10;46.30
8914;DHT22;4492;48.736;9.092;2023-06-14T15:22:20;26.30;45.80
8914;DHT22;4492;48.736;9.092;2023-06-14T15:24:46;26.40;46.30
8914;DHT22;4492;48.736;9.092;2023-06-14T15:27:12;26.60;46.50
8914;DHT22;4492;48.736;9.092;2023-06-14T15:29:41;26.80;46.20
8914;DHT22;4492;48.736;9.092;2023-06-14T15:32:07;26.90;45.10
8914;DHT22;4492;48.736;9.092;2023-06-14T15:34:33;27.00;44.90
8914;DHT22;4492;48.736;9.092;2023-06-14T15:36:58;27.20;44.70
8914;DHT22;4492;48.736;9.092;2023-06-14T15:39:25;27.40;44.90
8914;DHT22;4492;48.736;9.092;2023-06-14T15:41:52;27.70;44.30
8914;DHT22;4492;48.736;9.092;2023-06-14T15:44:17;28.00;44.10
8914;DHT22;4492;48.736;9.092;2023-06-14T15:46:43;28.10;43.10
8914;DHT22;4492;48.736;9.092;2023-06-14T15:49:09;28.00;43.00
8914;DHT22;4492;48.736;9.092;2023-06-14T15:51:36;28.00;43.40
8914;DHT22;4492;48.736;9.092;2023-06-14T15:54:01;28.00;43.20
8914;DHT22;4492;48.736;9.092;2023-06-14T15:56:27;28.00;42.80
8914;DHT22;4492;48.736;9.092;2023-06-14T15:58:52;28.00;43.20
8914;DHT22;4492;48.736;9.092;2023-06-14T16:01:18;28.30;42.50
8914;DHT22;4492;48.736;9.092;2023-06-14T16:03:43;28.50;42.20
8914;DHT22;4492;48.736;9.092;2023-06-14T16:06:09;28.90;41.70
8914;DHT22;4492;48.736;9.092;2023-06-14T16:08:34;29.40;40.70
8914;DHT22;4492;48.736;9.092;2023-06-14T16:11:00;30.00;40.10
8914;DHT22;4492;48.736;9.092;2023-06-14T16:13:25;30.30;40.40